sensor_id;sensor_type;location;lat;lon;timestamp;P1;durP1;ratioP1;P2;durP2;ratioP2
59418;SDS011;45224;50.904;6.038;2024-01-07T00:01:11;22.48;;;11.40;;
59418;SDS011;45224;50.904;6.038;2024-01-07T00:02:41;21.30;;;11.02;;
59418;SDS011;45224;50.904;6.038;2024-01-07T00:04:11;24.75;;;12.20;;
59418;SDS011;45224;50.904;6.038;2024-01-07T00:05:42;22.95;;;11.25;;
59418;SDS011;45224;50.904;6.038;2024-01-07T00:07:12;22.02;;;10.98;;
59418;SDS011;45224;50.904;6.038;2024-01-07T00:08:43;23.90;;;11.65;;
59418;SDS011;45224;50.904;6.038;2024-01-07T00:10:13;22.30;;;10.95;;
59418;SDS011;45224;50.904;6.038;2024-01-07T00:11:44;20.83;;;10.98;;
59418;SDS011;45224;50.904;6.038;2024-01-07T00:13:14;19.73;;;10.07;;
59418;SDS011;45224;50.904;6.038;2024-01-07T00:14:45;23.15;;;11.18;;
59418;SDS011;45224;50.904;6.038;2024-01-07T00:16:16;20.25;;;10.70;;
59418;SDS011;45224;50.904;6.038;2024-01-07T00:17:46;20.55;;;10.07;;
59418;SDS011;45224;50.904;6.038;2024-01-07T00:19:17;21.00;;;10.38;;
59418;SDS011;45224;50.904;6.038;2024-01-07T00:20:47;21.73;;;11.25;;
59418;SDS011;45224;50.904;6.038;2024-01-07T00:22:18;23.30;;;11.25;;
59418;SDS011;45224;50.904;6.038;2024-01-07T00:23:48;18.73;;;8.30;;
59418;SDS011;45224;50.904;6.038;2024-01-07T00:25:19;21.40;;;9.48;;
59418;SDS011;45224;50.904;6.038;2024-01-07T00:26:49;21.35;;;10.07;;
59418;SDS011;45224;50.904;6.038;2024-01-07T00:28:20;22.60;;;10.60;;
59418;SDS011;45224;50.904;6.038;2024-01-07T00:29:50;20.33;;;9.98;;
59418;SDS011;45224;50.904;6.038;2024-01-07T00:31:21;20.15;;;10.40;;
59418;SDS011;45224;50.904;6.038;2024-01-07T00:32:51;17.98;;;8.70;;
59418;SDS011;45224;50.904;6.038;2024-01-07T00:34:22;21.33;;;10.07;;
59418;SDS011;45224;50.904;6.038;2024-01-07T00:35:54;24.02;;;11.23;;
59418;SDS011;45224;50.904;6.038;2024-01-07T00:37:25;19.73;;;9.80;;
59418;SDS011;45224;50.904;6.038;2024-01-07T00:38:56;22.70;;;10.18;;
59418;SDS011;45224;50.904;6.038;2024-01-07T00:40:26;18.95;;;10.05;;
59418;SDS011;45224;50.904;6.038;2024-01-07T00:41:58;18.00;;;9.43;;
59418;SDS011;45224;50.904;6.038;2024-01-07T00:43:29;21.50;;;11.02;;
59418;SDS011;45224;50.904;6.038;2024-01-07T00:44:59;24.17;;;10.80;;
59418;SDS011;45224;50.904;6.038;2024-01-07T00:46:29;20.95;;;10.23;;
59418;SDS011;45224;50.904;6.038;2024-01-07T00:48:00;19.77;;;9.60;;
59418;SDS011;45224;50.904;6.038;2024-01-07T00:49:30;21.10;;;10.43;;
59418;SDS011;45224;50.904;6.038;2024-01-07T00:51:01;21.23;;;9.18;;
59418;SDS011;45224;50.904;6.038;2024-01-07T00:52:31;21.67;;;10.23;;
59418;SDS011;45224;50.904;6.038;2024-01-07T00:54:02;22.65;;;10.27;;
59418;SDS011;45224;50.904;6.038;2024-01-07T00:55:32;20.83;;;10.48;;
59418;SDS011;45224;50.904;6.038;2024-01-07T00:57:03;20.35;;;8.30;;
59418;SDS011;45224;50.904;6.038;2024-01-07T00:58:35;17.77;;;8.48;;
59418;SDS011;45224;50.904;6.038;2024-01-07T01:00:07;19.30;;;9.40;;
59418;SDS011;45224;50.904;6.038;2024-01-07T01:01:37;20.58;;;9.60;;
59418;SDS011;45224;50.904;6.038;2024-01-07T01:03:08;19.15;;;10.27;;
59418;SDS011;45224;50.904;6.038;2024-01-07T01:04:39;22.33;;;10.35;;
59418;SDS011;45224;50.904;6.038;2024-01-07T01:07:42;23.60;;;9.97;;
59418;SDS011;45224;50.904;6.038;2024-01-07T01:09:13;23.33;;;9.90;;
59418;SDS011;45224;50.904;6.038;2024-01-07T01:10:43;20.55;;;9.95;;
59418;SDS011;45224;50.904;6.038;2024-01-07T01:12:14;19.70;;;9.20;;
59418;SDS011;45224;50.904;6.038;2024-01-07T01:13:44;24.58;;;10.35;;
59418;SDS011;45224;50.904;6.038;2024-01-07T01:15:15;20.02;;;9.95;;
59418;SDS011;45224;50.904;6.038;2024-01-07T01:16:46;22.15;;;9.73;;
59418;SDS011;45224;50.904;6.038;2024-01-07T01:18:17;22.27;;;10.93;;
59418;SDS011;45224;50.904;6.038;2024-01-07T01:19:47;22.77;;;10.82;;
59418;SDS011;45224;50.904;6.038;2024-01-07T01:21:18;24.38;;;10.77;;
59418;SDS011;45224;50.904;6.038;2024-01-07T01:22:48;21.95;;;10.23;;
59418;SDS011;45224;50.904;6.038;2024-01-07T01:24:19;25.00;;;10.90;;
59418;SDS011;45224;50.904;6.038;2024-01-07T01:25:49;23.60;;;10.27;;
59418;SDS011;45224;50.904;6.038;2024-01-07T01:27:19;22.45;;;10.63;;
59418;SDS011;45224;50.904;6.038;2024-01-07T01:28:50;26.42;;;11.00;;
59418;SDS011;45224;50.904;6.038;2024-01-07T01:30:20;28.40;;;12.30;;
59418;SDS011;45224;50.904;6.038;2024-01-07T01:31:51;26.50;;;11.60;;
59418;SDS011;45224;50.904;6.038;2024-01-07T01:33:21;26.17;;;10.88;;
59418;SDS011;45224;50.904;6.038;2024-01-07T01:34:52;25.67;;;11.23;;
59418;SDS011;45224;50.904;6.038;2024-01-07T01:36:23;24.73;;;10.68;;
59418;SDS011;45224;50.904;6.038;2024-01-07T01:37:54;24.55;;;10.75;;
59418;SDS011;45224;50.904;6.038;2024-01-07T01:39:24;24.80;;;10.98;;
59418;SDS011;45224;50.904;6.038;2024-01-07T01:40:55;25.98;;;10.88;;
59418;SDS011;45224;50.904;6.038;2024-01-07T01:42:25;25.85;;;10.30;;
59418;SDS011;45224;50.904;6.038;2024-01-07T01:43:59;25.48;;;10.60;;
59418;SDS011;45224;50.904;6.038;2024-01-07T01:45:30;23.98;;;10.10;;
59418;SDS011;45224;50.904;6.038;2024-01-07T01:47:01;20.80;;;8.50;;
59418;SDS011;45224;50.904;6.038;2024-01-07T01:48:32;27.27;;;11.48;;
59418;SDS011;45224;50.904;6.038;2024-01-07T01:50:03;26.20;;;11.10;;
59418;SDS011;45224;50.904;6.038;2024-01-07T01:51:34;25.10;;;11.10;;
59418;SDS011;45224;50.904;6.038;2024-01-07T01:53:05;27.67;;;11.82;;
59418;SDS011;45224;50.904;6.038;2024-01-07T01:54:36;30.50;;;13.13;;
59418;SDS011;45224;50.904;6.038;2024-01-07T01:56:06;26.35;;;11.80;;
59418;SDS011;45224;50.904;6.038;2024-01-07T01:57:38;30.02;;;12.10;;
59418;SDS011;45224;50.904;6.038;2024-01-07T01:59:10;29.20;;;13.00;;
59418;SDS011;45224;50.904;6.038;2024-01-07T02:00:42;29.23;;;11.75;;
59418;SDS011;45224;50.904;6.038;2024-01-07T02:02:14;28.27;;;11.45;;
59418;SDS011;45224;50.904;6.038;2024-01-07T02:03:45;26.35;;;10.85;;
59418;SDS011;45224;50.904;6.038;2024-01-07T02:05:16;27.35;;;12.20;;
59418;SDS011;45224;50.904;6.038;2024-01-07T02:06:46;36.17;;;12.68;;
59418;SDS011;45224;50.904;6.038;2024-01-07T02:08:18;30.73;;;13.00;;
59418;SDS011;45224;50.904;6.038;2024-01-07T02:09:49;30.67;;;12.55;;
59418;SDS011;45224;50.904;6.038;2024-01-07T02:11:21;25.95;;;10.68;;
59418;SDS011;45224;50.904;6.038;2024-01-07T02:12:52;28.13;;;11.98;;
59418;SDS011;45224;50.904;6.038;2024-01-07T02:14:22;25.17;;;11.60;;
59418;SDS011;45224;50.904;6.038;2024-01-07T02:15:56;27.60;;;11.35;;
59418;SDS011;45224;50.904;6.038;2024-01-07T02:17:26;28.70;;;12.18;;
59418;SDS011;45224;50.904;6.038;2024-01-07T02:18:57;27.95;;;12.35;;
59418;SDS011;45224;50.904;6.038;2024-01-07T02:20:28;27.00;;;11.18;;
59418;SDS011;45224;50.904;6.038;2024-01-07T02:21:58;29.95;;;11.65;;
59418;SDS011;45224;50.904;6.038;2024-01-07T02:23:29;26.58;;;11.63;;
59418;SDS011;45224;50.904;6.038;2024-01-07T02:24:59;27.58;;;11.90;;
59418;SDS011;45224;50.904;6.038;2024-01-07T02:26:30;31.73;;;12.57;;
59418;SDS011;45224;50.904;6.038;2024-01-07T02:28:01;27.13;;;11.60;;
59418;SDS011;45224;50.904;6.038;2024-01-07T02:29:31;29.98;;;11.07;;
59418;SDS011;45224;50.904;6.038;2024-01-07T02:31:02;28.10;;;11.93;;
59418;SDS011;45224;50.904;6.038;2024-01-07T02:32:32;26.52;;;11.90;;
59418;SDS011;45224;50.904;6.038;2024-01-07T02:34:04;32.13;;;12.80;;
59418;SDS011;45224;50.904;6.038;2024-01-07T02:35:35;25.42;;;11.27;;
59418;SDS011;45224;50.904;6.038;2024-01-07T02:37:05;26.92;;;11.23;;
59418;SDS011;45224;50.904;6.038;2024-01-07T02:38:36;30.63;;;12.02;;
59418;SDS011;45224;50.904;6.038;2024-01-07T02:40:06;26.38;;;11.30;;
59418;SDS011;45224;50.904;6.038;2024-01-07T02:41:37;25.85;;;11.00;;
59418;SDS011;45224;50.904;6.038;2024-01-07T02:43:08;27.25;;;11.23;;
59418;SDS011;45224;50.904;6.038;2024-01-07T02:44:38;23.42;;;9.65;;
59418;SDS011;45224;50.904;6.038;2024-01-07T02:46:09;25.70;;;11.18;;
59418;SDS011;45224;50.904;6.038;2024-01-07T02:47:41;26.92;;;10.80;;
59418;SDS011;45224;50.904;6.038;2024-01-07T02:49:11;21.65;;;9.32;;
59418;SDS011;45224;50.904;6.038;2024-01-07T02:50:43;22.55;;;9.85;;
59418;SDS011;45224;50.904;6.038;2024-01-07T02:52:13;23.30;;;10.13;;
59418;SDS011;45224;50.904;6.038;2024-01-07T02:53:43;21.77;;;9.82;;
59418;SDS011;45224;50.904;6.038;2024-01-07T02:55:14;24.13;;;9.32;;
59418;SDS011;45224;50.904;6.038;2024-01-07T02:56:44;23.25;;;10.35;;
59418;SDS011;45224;50.904;6.038;2024-01-07T02:58:15;23.67;;;10.40;;
59418;SDS011;45224;50.904;6.038;2024-01-07T02:59:46;23.50;;;9.90;;
59418;SDS011;45224;50.904;6.038;2024-01-07T03:01:18;23.98;;;10.63;;
59418;SDS011;45224;50.904;6.038;2024-01-07T03:02:52;23.35;;;10.13;;
59418;SDS011;45224;50.904;6.038;2024-01-07T03:04:23;22.42;;;10.18;;
59418;SDS011;45224;50.904;6.038;2024-01-07T03:05:53;23.08;;;10.15;;
59418;SDS011;45224;50.904;6.038;2024-01-07T03:07:24;20.15;;;9.60;;
59418;SDS011;45224;50.904;6.038;2024-01-07T03:08:54;20.45;;;9.15;;
59418;SDS011;45224;50.904;6.038;2024-01-07T03:10:25;21.45;;;9.05;;
59418;SDS011;45224;50.904;6.038;2024-01-07T03:11:55;22.02;;;9.75;;
59418;SDS011;45224;50.904;6.038;2024-01-07T03:13:26;19.25;;;9.02;;
59418;SDS011;45224;50.904;6.038;2024-01-07T03:14:56;19.17;;;9.60;;
59418;SDS011;45224;50.904;6.038;2024-01-07T03:16:26;18.17;;;8.38;;
59418;SDS011;45224;50.904;6.038;2024-01-07T03:17:57;13.05;;;5.95;;
59418;SDS011;45224;50.904;6.038;2024-01-07T03:19:27;16.98;;;7.10;;
59418;SDS011;45224;50.904;6.038;2024-01-07T03:20:58;17.75;;;8.15;;
59418;SDS011;45224;50.904;6.038;2024-01-07T03:22:28;16.77;;;7.90;;
59418;SDS011;45224;50.904;6.038;2024-01-07T03:23:59;16.92;;;7.38;;
59418;SDS011;45224;50.904;6.038;2024-01-07T03:25:29;16.15;;;7.28;;
59418;SDS011;45224;50.904;6.038;2024-01-07T03:27:00;15.65;;;7.50;;
59418;SDS011;45224;50.904;6.038;2024-01-07T03:28:30;15.38;;;6.72;;
59418;SDS011;45224;50.904;6.038;2024-01-07T03:30:00;14.90;;;6.72;;
59418;SDS011;45224;50.904;6.038;2024-01-07T03:31:31;14.57;;;6.50;;
59418;SDS011;45224;50.904;6.038;2024-01-07T03:33:02;14.85;;;6.95;;
59418;SDS011;45224;50.904;6.038;2024-01-07T03:34:32;15.65;;;6.90;;
59418;SDS011;45224;50.904;6.038;2024-01-07T03:36:06;15.02;;;7.30;;
59418;SDS011;45224;50.904;6.038;2024-01-07T03:37:40;14.23;;;7.20;;
59418;SDS011;45224;50.904;6.038;2024-01-07T03:39:11;12.32;;;6.53;;
59418;SDS011;45224;50.904;6.038;2024-01-07T03:40:41;13.27;;;6.35;;
59418;SDS011;45224;50.904;6.038;2024-01-07T03:42:12;14.82;;;6.82;;
59418;SDS011;45224;50.904;6.038;2024-01-07T03:43:43;16.90;;;6.97;;
59418;SDS011;45224;50.904;6.038;2024-01-07T03:45:14;16.30;;;7.00;;
59418;SDS011;45224;50.904;6.038;2024-01-07T03:46:44;14.23;;;6.78;;
59418;SDS011;45224;50.904;6.038;2024-01-07T03:48:15;14.32;;;6.22;;
59418;SDS011;45224;50.904;6.038;2024-01-07T03:49:45;15.50;;;7.10;;
59418;SDS011;45224;50.904;6.038;2024-01-07T03:51:15;14.43;;;7.25;;
59418;SDS011;45224;50.904;6.038;2024-01-07T03:52:46;14.27;;;6.30;;
59418;SDS011;45224;50.904;6.038;2024-01-07T03:54:16;14.02;;;6.40;;
59418;SDS011;45224;50.904;6.038;2024-01-07T03:55:47;13.57;;;6.30;;
59418;SDS011;45224;50.904;6.038;2024-01-07T03:57:17;12.65;;;6.55;;
59418;SDS011;45224;50.904;6.038;2024-01-07T03:58:47;15.20;;;6.43;;
59418;SDS011;45224;50.904;6.038;2024-01-07T04:00:18;13.38;;;6.57;;
59418;SDS011;45224;50.904;6.038;2024-01-07T04:01:49;14.68;;;7.22;;
59418;SDS011;45224;50.904;6.038;2024-01-07T04:03:19;14.95;;;6.57;;
59418;SDS011;45224;50.904;6.038;2024-01-07T04:04:50;17.95;;;6.70;;
59418;SDS011;45224;50.904;6.038;2024-01-07T04:06:20;16.10;;;7.25;;
59418;SDS011;45224;50.904;6.038;2024-01-07T04:07:51;15.35;;;6.97;;
59418;SDS011;45224;50.904;6.038;2024-01-07T04:09:21;18.98;;;7.90;;
59418;SDS011;45224;50.904;6.038;2024-01-07T04:10:52;18.90;;;7.65;;
59418;SDS011;45224;50.904;6.038;2024-01-07T04:12:22;16.17;;;7.75;;
59418;SDS011;45224;50.904;6.038;2024-01-07T04:13:53;15.32;;;6.78;;
59418;SDS011;45224;50.904;6.038;2024-01-07T04:15:23;20.13;;;8.25;;
59418;SDS011;45224;50.904;6.038;2024-01-07T04:16:54;17.98;;;8.57;;
59418;SDS011;45224;50.904;6.038;2024-01-07T04:18:24;18.38;;;7.20;;
59418;SDS011;45224;50.904;6.038;2024-01-07T04:19:55;21.38;;;9.20;;
59418;SDS011;45224;50.904;6.038;2024-01-07T04:21:25;18.95;;;8.23;;
59418;SDS011;45224;50.904;6.038;2024-01-07T04:22:56;19.00;;;9.02;;
59418;SDS011;45224;50.904;6.038;2024-01-07T04:24:27;17.98;;;8.90;;
59418;SDS011;45224;50.904;6.038;2024-01-07T04:25:58;20.35;;;8.77;;
59418;SDS011;45224;50.904;6.038;2024-01-07T04:27:28;17.60;;;8.15;;
59418;SDS011;45224;50.904;6.038;2024-01-07T04:28:58;19.38;;;8.23;;
59418;SDS011;45224;50.904;6.038;2024-01-07T04:30:29;19.63;;;8.85;;
59418;SDS011;45224;50.904;6.038;2024-01-07T04:31:59;13.75;;;6.32;;
59418;SDS011;45224;50.904;6.038;2024-01-07T04:33:30;19.02;;;8.68;;
59418;SDS011;45224;50.904;6.038;2024-01-07T04:35:00;20.23;;;8.63;;
59418;SDS011;45224;50.904;6.038;2024-01-07T04:36:31;18.05;;;7.78;;
59418;SDS011;45224;50.904;6.038;2024-01-07T04:38:01;20.55;;;9.40;;
59418;SDS011;45224;50.904;6.038;2024-01-07T04:39:32;19.23;;;8.80;;
59418;SDS011;45224;50.904;6.038;2024-01-07T04:41:02;18.88;;;8.38;;
59418;SDS011;45224;50.904;6.038;2024-01-07T04:42:33;18.10;;;8.30;;
59418;SDS011;45224;50.904;6.038;2024-01-07T04:44:04;18.45;;;8.18;;
59418;SDS011;45224;50.904;6.038;2024-01-07T04:45:34;15.02;;;6.95;;
59418;SDS011;45224;50.904;6.038;2024-01-07T04:47:05;17.50;;;7.32;;
59418;SDS011;45224;50.904;6.038;2024-01-07T04:49:01;17.17;;;8.02;;
59418;SDS011;45224;50.904;6.038;2024-01-07T04:50:32;21.65;;;9.00;;
59418;SDS011;45224;50.904;6.038;2024-01-07T04:52:03;19.75;;;8.30;;
59418;SDS011;45224;50.904;6.038;2024-01-07T04:53:33;20.10;;;9.23;;
59418;SDS011;45224;50.904;6.038;2024-01-07T04:55:04;22.55;;;10.43;;
59418;SDS011;45224;50.904;6.038;2024-01-07T04:56:35;20.52;;;9.45;;
59418;SDS011;45224;50.904;6.038;2024-01-07T04:58:05;21.85;;;9.73;;
59418;SDS011;45224;50.904;6.038;2024-01-07T04:59:36;23.08;;;10.43;;
59418;SDS011;45224;50.904;6.038;2024-01-07T05:01:06;23.02;;;11.57;;
59418;SDS011;45224;50.904;6.038;2024-01-07T05:02:36;23.58;;;10.25;;
59418;SDS011;45224;50.904;6.038;2024-01-07T05:04:07;24.80;;;11.20;;
59418;SDS011;45224;50.904;6.038;2024-01-07T05:05:38;25.92;;;11.68;;
59418;SDS011;45224;50.904;6.038;2024-01-07T05:07:08;24.40;;;10.30;;
59418;SDS011;45224;50.904;6.038;2024-01-07T05:08:42;23.70;;;10.02;;
59418;SDS011;45224;50.904;6.038;2024-01-07T05:10:12;27.23;;;12.25;;
59418;SDS011;45224;50.904;6.038;2024-01-07T05:11:43;28.02;;;12.23;;
59418;SDS011;45224;50.904;6.038;2024-01-07T05:13:13;24.20;;;10.63;;
59418;SDS011;45224;50.904;6.038;2024-01-07T05:14:44;26.60;;;10.38;;
59418;SDS011;45224;50.904;6.038;2024-01-07T05:16:19;24.65;;;11.77;;
59418;SDS011;45224;50.904;6.038;2024-01-07T05:17:50;23.92;;;11.02;;
59418;SDS011;45224;50.904;6.038;2024-01-07T05:19:20;28.88;;;11.55;;
59418;SDS011;45224;50.904;6.038;2024-01-07T05:20:51;24.00;;;10.85;;
59418;SDS011;45224;50.904;6.038;2024-01-07T05:22:22;24.52;;;10.48;;
59418;SDS011;45224;50.904;6.038;2024-01-07T05:23:52;27.20;;;11.25;;
59418;SDS011;45224;50.904;6.038;2024-01-07T05:25:22;29.55;;;12.98;;
59418;SDS011;45224;50.904;6.038;2024-01-07T05:26:53;25.92;;;11.02;;
59418;SDS011;45224;50.904;6.038;2024-01-07T05:28:24;27.23;;;11.00;;
59418;SDS011;45224;50.904;6.038;2024-01-07T05:29:54;22.77;;;9.98;;
59418;SDS011;45224;50.904;6.038;2024-01-07T05:31:25;26.60;;;11.45;;
59418;SDS011;45224;50.904;6.038;2024-01-07T05:32:56;23.88;;;11.15;;
59418;SDS011;45224;50.904;6.038;2024-01-07T05:34:26;25.92;;;10.07;;
59418;SDS011;45224;50.904;6.038;2024-01-07T05:35:57;26.15;;;11.25;;
59418;SDS011;45224;50.904;6.038;2024-01-07T05:37:28;27.20;;;11.50;;
59418;SDS011;45224;50.904;6.038;2024-01-07T05:38:58;23.00;;;10.43;;
59418;SDS011;45224;50.904;6.038;2024-01-07T05:40:29;27.15;;;12.00;;
59418;SDS011;45224;50.904;6.038;2024-01-07T05:41:59;28.17;;;11.80;;
59418;SDS011;45224;50.904;6.038;2024-01-07T05:43:30;23.02;;;9.60;;
59418;SDS011;45224;50.904;6.038;2024-01-07T05:45:00;25.73;;;10.38;;
59418;SDS011;45224;50.904;6.038;2024-01-07T05:46:32;27.52;;;12.13;;
59418;SDS011;45224;50.904;6.038;2024-01-07T05:48:03;28.23;;;10.80;;
59418;SDS011;45224;50.904;6.038;2024-01-07T05:49:34;24.90;;;11.10;;
59418;SDS011;45224;50.904;6.038;2024-01-07T05:51:04;23.38;;;10.30;;
59418;SDS011;45224;50.904;6.038;2024-01-07T05:52:35;24.08;;;10.70;;
59418;SDS011;45224;50.904;6.038;2024-01-07T05:54:05;20.98;;;8.57;;
59418;SDS011;45224;50.904;6.038;2024-01-07T05:55:36;21.20;;;8.65;;
59418;SDS011;45224;50.904;6.038;2024-01-07T05:57:06;25.98;;;11.70;;
59418;SDS011;45224;50.904;6.038;2024-01-07T05:58:36;19.08;;;8.38;;
59418;SDS011;45224;50.904;6.038;2024-01-07T06:00:07;25.08;;;9.48;;
59418;SDS011;45224;50.904;6.038;2024-01-07T06:01:42;25.90;;;10.88;;
59418;SDS011;45224;50.904;6.038;2024-01-07T06:03:13;30.85;;;12.30;;
59418;SDS011;45224;50.904;6.038;2024-01-07T06:04:43;27.10;;;11.90;;
59418;SDS011;45224;50.904;6.038;2024-01-07T06:06:14;29.33;;;11.20;;
59418;SDS011;45224;50.904;6.038;2024-01-07T06:07:45;29.02;;;12.02;;
59418;SDS011;45224;50.904;6.038;2024-01-07T06:09:15;32.33;;;13.77;;
59418;SDS011;45224;50.904;6.038;2024-01-07T06:10:46;30.50;;;12.23;;
59418;SDS011;45224;50.904;6.038;2024-01-07T06:12:16;21.95;;;7.85;;
59418;SDS011;45224;50.904;6.038;2024-01-07T06:13:47;29.52;;;12.30;;
59418;SDS011;45224;50.904;6.038;2024-01-07T06:15:17;27.08;;;11.95;;
59418;SDS011;45224;50.904;6.038;2024-01-07T06:16:48;28.65;;;12.27;;
59418;SDS011;45224;50.904;6.038;2024-01-07T06:18:18;18.48;;;7.85;;
59418;SDS011;45224;50.904;6.038;2024-01-07T06:19:49;27.60;;;12.90;;
59418;SDS011;45224;50.904;6.038;2024-01-07T06:21:19;26.13;;;11.27;;
59418;SDS011;45224;50.904;6.038;2024-01-07T06:22:50;23.90;;;9.90;;
59418;SDS011;45224;50.904;6.038;2024-01-07T06:24:20;28.52;;;12.40;;
59418;SDS011;45224;50.904;6.038;2024-01-07T06:25:50;23.75;;;10.35;;
59418;SDS011;45224;50.904;6.038;2024-01-07T06:27:21;19.33;;;7.38;;
59418;SDS011;45224;50.904;6.038;2024-01-07T06:28:51;23.38;;;11.27;;
59418;SDS011;45224;50.904;6.038;2024-01-07T06:30:22;24.40;;;12.00;;
59418;SDS011;45224;50.904;6.038;2024-01-07T06:31:52;27.45;;;11.80;;
59418;SDS011;45224;50.904;6.038;2024-01-07T06:33:23;26.13;;;11.65;;
59418;SDS011;45224;50.904;6.038;2024-01-07T06:34:53;24.77;;;10.77;;
59418;SDS011;45224;50.904;6.038;2024-01-07T06:36:24;24.73;;;10.75;;
59418;SDS011;45224;50.904;6.038;2024-01-07T06:37:55;25.05;;;11.15;;
59418;SDS011;45224;50.904;6.038;2024-01-07T06:39:25;22.35;;;9.52;;
59418;SDS011;45224;50.904;6.038;2024-01-07T06:40:59;23.60;;;10.35;;
59418;SDS011;45224;50.904;6.038;2024-01-07T06:42:31;26.75;;;10.23;;
59418;SDS011;45224;50.904;6.038;2024-01-07T06:44:02;21.10;;;10.27;;
59418;SDS011;45224;50.904;6.038;2024-01-07T06:45:33;19.58;;;9.60;;
59418;SDS011;45224;50.904;6.038;2024-01-07T06:47:03;21.75;;;9.80;;
59418;SDS011;45224;50.904;6.038;2024-01-07T06:48:34;18.83;;;9.25;;
59418;SDS011;45224;50.904;6.038;2024-01-07T06:50:04;20.10;;;9.32;;
59418;SDS011;45224;50.904;6.038;2024-01-07T06:51:36;20.20;;;9.07;;
59418;SDS011;45224;50.904;6.038;2024-01-07T06:53:07;22.92;;;11.13;;
59418;SDS011;45224;50.904;6.038;2024-01-07T06:54:38;20.77;;;9.90;;
59418;SDS011;45224;50.904;6.038;2024-01-07T06:56:09;21.10;;;8.63;;
59418;SDS011;45224;50.904;6.038;2024-01-07T06:57:39;21.92;;;9.82;;
59418;SDS011;45224;50.904;6.038;2024-01-07T06:59:10;21.67;;;10.35;;
59418;SDS011;45224;50.904;6.038;2024-01-07T07:00:41;20.58;;;9.73;;
59418;SDS011;45224;50.904;6.038;2024-01-07T07:02:12;22.08;;;10.00;;
59418;SDS011;45224;50.904;6.038;2024-01-07T07:03:42;22.45;;;10.90;;
59418;SDS011;45224;50.904;6.038;2024-01-07T07:05:12;23.73;;;10.38;;
59418;SDS011;45224;50.904;6.038;2024-01-07T07:06:43;22.70;;;10.45;;
59418;SDS011;45224;50.904;6.038;2024-01-07T07:08:13;24.33;;;11.18;;
59418;SDS011;45224;50.904;6.038;2024-01-07T07:09:44;18.73;;;9.77;;
59418;SDS011;45224;50.904;6.038;2024-01-07T07:11:15;20.42;;;9.93;;
59418;SDS011;45224;50.904;6.038;2024-01-07T07:12:46;25.63;;;11.18;;
59418;SDS011;45224;50.904;6.038;2024-01-07T07:14:16;29.02;;;12.27;;
59418;SDS011;45224;50.904;6.038;2024-01-07T07:15:47;26.02;;;12.90;;
59418;SDS011;45224;50.904;6.038;2024-01-07T07:17:17;25.23;;;12.65;;
59418;SDS011;45224;50.904;6.038;2024-01-07T07:18:48;31.95;;;14.82;;
59418;SDS011;45224;50.904;6.038;2024-01-07T07:20:18;23.42;;;10.90;;
59418;SDS011;45224;50.904;6.038;2024-01-07T07:21:49;22.90;;;11.32;;
59418;SDS011;45224;50.904;6.038;2024-01-07T07:23:20;16.95;;;7.78;;
59418;SDS011;45224;50.904;6.038;2024-01-07T07:24:50;17.60;;;8.63;;
59418;SDS011;45224;50.904;6.038;2024-01-07T07:26:21;24.58;;;12.45;;
59418;SDS011;45224;50.904;6.038;2024-01-07T07:27:51;23.02;;;11.18;;
59418;SDS011;45224;50.904;6.038;2024-01-07T07:29:21;26.40;;;12.95;;
59418;SDS011;45224;50.904;6.038;2024-01-07T07:30:52;25.83;;;12.38;;
59418;SDS011;45224;50.904;6.038;2024-01-07T07:32:23;24.23;;;10.90;;
59418;SDS011;45224;50.904;6.038;2024-01-07T07:33:53;24.00;;;11.63;;
59418;SDS011;45224;50.904;6.038;2024-01-07T07:35:24;25.23;;;11.75;;
59418;SDS011;45224;50.904;6.038;2024-01-07T07:36:54;19.33;;;9.00;;
59418;SDS011;45224;50.904;6.038;2024-01-07T07:38:25;24.08;;;12.38;;
59418;SDS011;45224;50.904;6.038;2024-01-07T07:39:56;24.17;;;11.32;;
59418;SDS011;45224;50.904;6.038;2024-01-07T07:41:26;21.60;;;11.15;;
59418;SDS011;45224;50.904;6.038;2024-01-07T07:42:57;24.45;;;12.60;;
59418;SDS011;45224;50.904;6.038;2024-01-07T07:44:27;24.77;;;12.73;;
59418;SDS011;45224;50.904;6.038;2024-01-07T07:45:57;26.08;;;12.93;;
59418;SDS011;45224;50.904;6.038;2024-01-07T07:47:28;22.05;;;11.07;;
59418;SDS011;45224;50.904;6.038;2024-01-07T07:48:58;17.35;;;8.70;;
59418;SDS011;45224;50.904;6.038;2024-01-07T07:50:31;25.73;;;12.05;;
59418;SDS011;45224;50.904;6.038;2024-01-07T07:52:01;20.00;;;10.23;;
59418;SDS011;45224;50.904;6.038;2024-01-07T07:53:32;25.27;;;13.20;;
59418;SDS011;45224;50.904;6.038;2024-01-07T07:55:02;15.00;;;7.32;;
59418;SDS011;45224;50.904;6.038;2024-01-07T07:56:33;20.65;;;11.25;;
59418;SDS011;45224;50.904;6.038;2024-01-07T07:58:03;18.27;;;7.68;;
59418;SDS011;45224;50.904;6.038;2024-01-07T07:59:34;21.90;;;10.73;;
59418;SDS011;45224;50.904;6.038;2024-01-07T08:01:04;21.10;;;10.90;;
59418;SDS011;45224;50.904;6.038;2024-01-07T08:02:35;20.33;;;10.00;;
59418;SDS011;45224;50.904;6.038;2024-01-07T08:04:05;26.10;;;13.30;;
59418;SDS011;45224;50.904;6.038;2024-01-07T08:05:36;14.23;;;6.07;;
59418;SDS011;45224;50.904;6.038;2024-01-07T08:07:07;23.83;;;11.63;;
59418;SDS011;45224;50.904;6.038;2024-01-07T08:08:38;21.52;;;11.07;;
59418;SDS011;45224;50.904;6.038;2024-01-07T08:10:09;25.90;;;12.90;;
59418;SDS011;45224;50.904;6.038;2024-01-07T08:11:39;22.52;;;12.25;;
59418;SDS011;45224;50.904;6.038;2024-01-07T08:13:10;18.33;;;9.50;;
59418;SDS011;45224;50.904;6.038;2024-01-07T08:14:40;24.25;;;12.30;;
59418;SDS011;45224;50.904;6.038;2024-01-07T08:16:11;25.85;;;13.30;;
59418;SDS011;45224;50.904;6.038;2024-01-07T08:17:41;20.55;;;9.23;;
59418;SDS011;45224;50.904;6.038;2024-01-07T08:19:13;24.20;;;12.13;;
59418;SDS011;45224;50.904;6.038;2024-01-07T08:20:44;20.60;;;10.77;;
59418;SDS011;45224;50.904;6.038;2024-01-07T08:22:14;22.50;;;11.32;;
59418;SDS011;45224;50.904;6.038;2024-01-07T08:23:45;20.15;;;10.82;;
59418;SDS011;45224;50.904;6.038;2024-01-07T08:25:15;15.40;;;8.63;;
59418;SDS011;45224;50.904;6.038;2024-01-07T08:26:46;18.70;;;9.48;;
59418;SDS011;45224;50.904;6.038;2024-01-07T08:28:16;19.92;;;10.70;;
59418;SDS011;45224;50.904;6.038;2024-01-07T08:29:47;22.75;;;10.85;;
59418;SDS011;45224;50.904;6.038;2024-01-07T08:31:18;21.85;;;10.88;;
59418;SDS011;45224;50.904;6.038;2024-01-07T08:32:48;18.33;;;9.02;;
59418;SDS011;45224;50.904;6.038;2024-01-07T08:34:19;12.13;;;6.60;;
59418;SDS011;45224;50.904;6.038;2024-01-07T08:35:49;20.00;;;9.13;;
59418;SDS011;45224;50.904;6.038;2024-01-07T08:37:20;21.88;;;10.50;;
59418;SDS011;45224;50.904;6.038;2024-01-07T08:38:50;21.60;;;11.10;;
59418;SDS011;45224;50.904;6.038;2024-01-07T08:40:20;23.70;;;11.90;;
59418;SDS011;45224;50.904;6.038;2024-01-07T08:41:51;22.70;;;11.30;;
59418;SDS011;45224;50.904;6.038;2024-01-07T08:43:22;23.08;;;11.68;;
59418;SDS011;45224;50.904;6.038;2024-01-07T08:44:52;15.63;;;7.07;;
59418;SDS011;45224;50.904;6.038;2024-01-07T08:46:23;24.17;;;10.68;;
59418;SDS011;45224;50.904;6.038;2024-01-07T08:47:53;22.45;;;10.35;;
59418;SDS011;45224;50.904;6.038;2024-01-07T08:49:24;23.27;;;11.63;;
59418;SDS011;45224;50.904;6.038;2024-01-07T08:50:54;23.42;;;11.55;;
59418;SDS011;45224;50.904;6.038;2024-01-07T08:52:24;21.80;;;11.20;;
59418;SDS011;45224;50.904;6.038;2024-01-07T08:53:56;22.98;;;9.07;;
59418;SDS011;45224;50.904;6.038;2024-01-07T08:55:28;24.77;;;12.25;;